San Patricio — WCX6675 — position and weather

sailwx.info

Track history (hours):
 
Tides and Currents Weather Stations Pressure Air Temp Water Temp Dewpoint Dewpoint Depression Visibility Wind Speed Wind Dir Waves Ship Positions

San Patricio

Owner: BUFFALO MARINE SERVICE INC, HOUSTON, TX. More information available from US FCC via Universal Licensing System and Coast Guard Vessel Documentation Center.

Last reported at 2018-Feb-24 10:57 UTC. Time now 2018-Feb-24 12:18 UTC.
Position N 29°45' W 095°06'.

Length 30 m; draft 3.1 m.

Type: Tug. MMSI: 366941830.

Date/timePositionNaut miles runAvg speedWind from/ knotsBaromVisibWave heightAir tempDewpointWater temp
2018-Feb-24 10:57N 29°45' W 095°06'0 0.0
2018-Feb-24 10:29N 29°45' W 095°06'0 0.0
2018-Feb-24 10:00N 29°45' W 095°06'0 0.0
2018-Feb-24 09:30N 29°45' W 095°06'0 0.0
2018-Feb-24 09:00N 29°45' W 095°06'0 0.0
2018-Feb-24 08:30N 29°45' W 095°06'0 0.0
2018-Feb-24 07:26N 29°45' W 095°06'0 0.0
2018-Feb-24 07:00N 29°45' W 095°06'0 0.0
2018-Feb-24 06:30N 29°45' W 095°06'0 0.0
2018-Feb-24 06:00N 29°45' W 095°06'0 0.0
2018-Feb-24 05:30N 29°45' W 095°06'0 0.0
2018-Feb-24 05:00N 29°45' W 095°06'0 0.0
2018-Feb-24 04:29N 29°45' W 095°06'0 0.0
2018-Feb-24 04:00N 29°45' W 095°06'0 0.0
2018-Feb-24 03:30N 29°45' W 095°06'0 0.0
2018-Feb-24 03:00N 29°45' W 095°06'0 0.1
2018-Feb-24 02:30N 29°45' W 095°06'4 0.1
2018-Feb-22 16:40N 29°45' W 095°10'0 0.6
2018-Feb-22 16:28N 29°45' W 095°10'0 0.0
2018-Feb-22 16:00N 29°45' W 095°10'0 0.0
2018-Feb-22 15:30N 29°45' W 095°10'0 0.0
2018-Feb-22 15:00N 29°45' W 095°10'0 0.0
2018-Feb-22 14:30N 29°45' W 095°10'0 0.0
2018-Feb-22 13:57N 29°45' W 095°10'0 0.0
2018-Feb-22 13:29N 29°45' W 095°10'0 0.0
2018-Feb-22 13:00N 29°45' W 095°10'0 0.0
2018-Feb-22 12:22N 29°45' W 095°10'0 0.0
2018-Feb-22 11:51N 29°45' W 095°10'0 0.0
2018-Feb-22 11:25N 29°45' W 095°10'0 0.0
2018-Feb-22 11:00N 29°45' W 095°10'0 0.0
2018-Feb-22 10:22N 29°45' W 095°10'0 0.0
2018-Feb-22 10:00N 29°45' W 095°10'0 0.0
2018-Feb-22 09:30N 29°45' W 095°10'0 0.0
2018-Feb-22 09:00N 29°45' W 095°10'0 0.0
2018-Feb-22 08:30N 29°45' W 095°10'0 0.0
2018-Feb-22 08:00N 29°45' W 095°10'0 0.0
2018-Feb-22 07:29N 29°45' W 095°10'0 0.0
2018-Feb-22 07:00N 29°45' W 095°10'0 0.0
2018-Feb-22 06:28N 29°45' W 095°10'0 0.0
2018-Feb-22 06:00N 29°45' W 095°10'0 0.0
2018-Feb-22 05:30N 29°45' W 095°10'0 0.0
2018-Feb-22 05:00N 29°45' W 095°10'0 0.0
2018-Feb-22 04:30N 29°45' W 095°10'0 0.3
2018-Feb-22 03:58N 29°45' W 095°10'5 4.3
2018-Feb-22 02:47N 29°46' W 095°04'2 6.4
2018-Feb-22 02:28N 29°44' W 095°03'0 0.0
2018-Feb-21 14:34N 29°44' W 095°03'0 0.0
2018-Feb-21 14:29N 29°44' W 095°03'0 0.0
2018-Feb-21 13:58N 29°44' W 095°03'0 0.0
2018-Feb-21 13:29N 29°44' W 095°03'0 0.0
2018-Feb-21 13:00N 29°44' W 095°03'0 0.0
2018-Feb-21 12:28N 29°44' W 095°03'0 0.0
2018-Feb-21 11:59N 29°44' W 095°03'0 0.0
2018-Feb-21 11:30N 29°44' W 095°03'0 0.0
2018-Feb-21 11:00N 29°44' W 095°03'0 0.0
2018-Feb-21 10:30N 29°44' W 095°03'0 0.1
2018-Feb-21 09:36N 29°44' W 095°03'0 0.9
2018-Feb-21 09:30N 29°44' W 095°03'0 0.0
2018-Feb-21 04:06N 29°44' W 095°03'0 0.0
2018-Feb-20 20:24N 29°44' W 095°03'0 0.4
2018-Feb-20 20:00N 29°44' W 095°03'0 0.1
2018-Feb-20 19:27N 29°44' W 095°03'3 1.9
2018-Feb-20 17:41N 29°46' W 095°06'1 2.8
2018-Feb-20 17:29N 29°46' W 095°05'3 6.1
2018-Feb-20 17:00N 29°44' W 095°03'3 6.3
2018-Feb-20 16:31N 29°42' W 095°00'1 2.2
2018-Feb-20 16:00N 29°41' W 094°60'0 0.4
2018-Feb-20 15:30N 29°41' W 094°60'0 0.4
2018-Feb-20 15:00N 29°41' W 094°60'0 0.0
2018-Feb-20 14:17N 29°41' W 094°60'0 0.0
2018-Feb-20 14:00N 29°41' W 094°60'0 0.0
2018-Feb-20 13:30N 29°41' W 094°60'0 0.0
2018-Feb-20 09:42N 29°41' W 094°60'0 0.0
2018-Feb-20 08:21N 29°41' W 094°60'0 0.0
2018-Feb-20 08:00N 29°41' W 094°60'0 0.0
2018-Feb-20 07:30N 29°41' W 094°60'0 0.0
2018-Feb-20 07:00N 29°41' W 094°60'0 0.0
2018-Feb-20 06:30N 29°41' W 094°60'0 0.0
2018-Feb-20 06:00N 29°41' W 094°60'0 0.0
2018-Feb-20 05:30N 29°41' W 094°60'0 0.0
2018-Feb-20 05:00N 29°41' W 094°60'1 2.3
2018-Feb-20 04:30N 29°42' W 095°00'3 6.0
2018-Feb-20 03:58N 29°44' W 095°03'3 5.5
2018-Feb-20 03:24N 29°46' W 095°06'1 1.2
2018-Feb-20 02:52N 29°47' W 095°06'0 0.1
2018-Feb-20 02:30N 29°47' W 095°06'0 0.1
2018-Feb-20 01:56N 29°46' W 095°06'0 0.0
2018-Feb-20 01:30N 29°46' W 095°06'1 0.1
2018-Feb-19 14:20N 29°46' W 095°07'0 0.0
2018-Feb-19 12:46N 29°46' W 095°07'1 1.7
2018-Feb-19 12:26N 29°46' W 095°06'1 0.7
2018-Feb-19 11:10N 29°46' W 095°06'0 0.1
2018-Feb-19 11:00N 29°46' W 095°06'0 0.0
2018-Feb-19 10:29N 29°46' W 095°06'0 0.1
2018-Feb-19 09:50N 29°47' W 095°06'0 0.0
2018-Feb-19 09:29N 29°47' W 095°06'0 0.0
2018-Feb-19 09:00N 29°47' W 095°06'0 0.0
2018-Feb-19 08:30N 29°47' W 095°06'0 0.0
2018-Feb-19 08:00N 29°47' W 095°06'0 0.0
2018-Feb-19 07:30N 29°47' W 095°06'0 0.0
2018-Feb-19 06:59N 29°47' W 095°06'0 0.0
2018-Feb-19 06:29N 29°47' W 095°06'0 0.0
2018-Feb-19 05:59N 29°47' W 095°06'0 0.0
2018-Feb-19 05:30N 29°47' W 095°06'0 0.0
2018-Feb-19 04:54N 29°47' W 095°06'0 0.0
2018-Feb-19 01:52N 29°47' W 095°06'0 0.0
2018-Feb-19 01:22N 29°47' W 095°06'0 0.0
2018-Feb-19 00:59N 29°47' W 095°06'0 0.0
2018-Feb-19 00:24N 29°47' W 095°06'0 0.0
2018-Feb-18 23:59N 29°47' W 095°06'0 0.0
2018-Feb-18 23:30N 29°47' W 095°06'0 0.1
2018-Feb-18 22:57N 29°46' W 095°06'2 4.1
2018-Feb-18 22:29N 29°46' W 095°04'3 6.4
2018-Feb-18 21:59N 29°44' W 095°01'3 6.4
2018-Feb-18 21:30N 29°41' W 094°59'1 1.7
2018-Feb-18 20:56N 29°41' W 095°00'0 0.0
2018-Feb-18 20:29N 29°41' W 095°00'0 0.0
2018-Feb-18 20:00N 29°41' W 095°00'0 0.0
2018-Feb-18 19:29N 29°41' W 095°00'0 0.0
2018-Feb-18 19:00N 29°41' W 095°00'0 0.1
2018-Feb-18 18:30N 29°41' W 095°00'0 0.1
2018-Feb-18 18:00N 29°41' W 095°00'0 0.0
2018-Feb-18 17:30N 29°41' W 095°00'0 0.5
2018-Feb-18 17:01N 29°41' W 095°00'0 0.1
2018-Feb-18 16:30N 29°41' W 095°00'0 0.0
2018-Feb-18 16:00N 29°41' W 095°00'0 0.0
2018-Feb-18 15:30N 29°41' W 095°00'0 0.0
2018-Feb-18 15:00N 29°41' W 095°00'0 0.0
2018-Feb-18 14:30N 29°41' W 095°00'0 0.0
2018-Feb-18 14:00N 29°41' W 095°00'0 0.0
2018-Feb-18 13:30N 29°41' W 095°00'0 0.0
2018-Feb-18 13:00N 29°41' W 095°00'0 0.0
2018-Feb-18 12:30N 29°41' W 095°00'0 0.0
2018-Feb-18 11:39N 29°41' W 095°00'0 0.1
2018-Feb-18 11:30N 29°41' W 095°00'0 0.0
2018-Feb-18 11:01N 29°41' W 095°00'0 0.0
2018-Feb-18 10:30N 29°41' W 095°00'0 0.0
2018-Feb-18 10:00N 29°41' W 095°00'0 0.0
2018-Feb-18 09:31N 29°41' W 095°00'0 0.0
2018-Feb-18 09:00N 29°41' W 095°00'0 0.0
2018-Feb-18 08:30N 29°41' W 095°00'0 0.0
2018-Feb-18 08:00N 29°41' W 095°00'0 0.0
2018-Feb-18 07:30N 29°41' W 095°00'0 0.0
2018-Feb-18 07:00N 29°41' W 095°00'0 0.0
2018-Feb-18 06:30N 29°41' W 095°00'0 0.0
2018-Feb-18 06:00N 29°41' W 095°00'0 0.0
2018-Feb-18 05:30N 29°41' W 095°00'0 0.0
2018-Feb-18 05:00N 29°41' W 095°00'0 0.0
2018-Feb-18 04:30N 29°41' W 095°00'0 0.0
2018-Feb-18 04:00N 29°41' W 095°00'0 0.0
2018-Feb-18 03:30N 29°41' W 095°00'0 0.0
2018-Feb-18 03:00N 29°41' W 095°00'1 1.9
2018-Feb-18 02:30N 29°41' W 094°59'4 6.6
2018-Feb-18 01:56N 29°44' W 095°02'4 5.7
2018-Feb-18 01:16N 29°46' W 095°06'1 0.8
2018-Feb-18 00:37N 29°47' W 095°06'0 0.5
2018-Feb-18 00:26N 29°46' W 095°06'1 1.7
2018-Feb-17 23:59N 29°46' W 095°05'3 5.4
2018-Feb-17 23:20N 29°44' W 095°09'2 4.4
2018-Feb-17 22:57N 29°44' W 095°07'2 4.0
2018-Feb-17 22:30N 29°46' W 095°06'0 0.3
2018-Feb-17 21:58N 29°46' W 095°06'2 4.0
2018-Feb-17 21:29N 29°45' W 095°04'3 6.6
2018-Feb-17 21:00N 29°43' W 095°01'3 6.3
2018-Feb-17 20:30N 29°41' W 094°59'4 7.0
2018-Feb-17 20:00N 29°37' W 094°58'4 7.3
2018-Feb-17 19:31N 29°34' W 094°55'4 7.0
2018-Feb-17 19:00N 29°31' W 094°53'13 1.3
2018-Feb-17 09:04N 29°21' W 094°44'0 0.1
2018-Feb-17 08:56N 29°21' W 094°44'0 0.0
2018-Feb-17 08:29N 29°21' W 094°44'0 0.0
2018-Feb-17 07:58N 29°21' W 094°44'0 0.0
2018-Feb-17 07:28N 29°21' W 094°44'0 0.1
2018-Feb-17 06:59N 29°21' W 094°44'0 0.0
2018-Feb-17 06:21N 29°21' W 094°44'0 0.0
2018-Feb-17 05:55N 29°21' W 094°44'0 0.1
2018-Feb-17 05:22N 29°21' W 094°44'0 0.0
2018-Feb-17 05:00N 29°21' W 094°44'0 0.0
2018-Feb-17 04:29N 29°21' W 094°44'0 0.1
2018-Feb-17 03:57N 29°21' W 094°44'0 0.0
2018-Feb-17 03:30N 29°21' W 094°44'0 0.0
2018-Feb-17 02:58N 29°21' W 094°44'0 0.0
2018-Feb-17 02:30N 29°21' W 094°44'0 0.0
2018-Feb-17 02:00N 29°21' W 094°44'0 0.0
2018-Feb-17 01:05N 29°21' W 094°44'0 0.0
2018-Feb-17 00:51N 29°21' W 094°44'0 0.0
2018-Feb-17 00:30N 29°21' W 094°44'0 0.0
2018-Feb-17 00:00N 29°21' W 094°44'0 0.0
2018-Feb-16 23:30N 29°21' W 094°44'2 4.8
2018-Feb-16 23:00N 29°21' W 094°47'8 6.3
2018-Feb-16 21:48N 29°28' W 094°51'3 7.2
2018-Feb-16 21:21N 29°31' W 094°53'3 7.2
2018-Feb-16 21:00N 29°33' W 094°54'4 7.3
2018-Feb-16 20:31N 29°36' W 094°57'4 7.4
2018-Feb-16 20:00N 29°39' W 094°58'4 7.5
2018-Feb-16 19:30N 29°42' W 095°01'4 7.1
2018-Feb-16 19:00N 29°45' W 095°04'2 4.9
2018-Feb-16 18:30N 29°44' W 095°07'3 5.4
2018-Feb-16 18:01N 29°45' W 095°10'3 5.4
2018-Feb-16 17:24N 29°43' W 095°13'4 0.3
2018-Feb-16 04:24N 29°45' W 095°17'2 0.8
2018-Feb-16 02:08N 29°43' W 095°16'1 2.9
2018-Feb-16 01:40N 29°45' W 095°17'4 0.7
2018-Feb-15 19:33N 29°44' W 095°12'4 0.3
2018-Feb-15 08:36N 29°44' W 095°17'0 0.0
2018-Feb-15 08:12N 29°44' W 095°17'0 0.0
2018-Feb-15 07:58N 29°44' W 095°17'0 0.0
2018-Feb-15 07:30N 29°44' W 095°17'1 1.1
2018-Feb-15 07:00N 29°44' W 095°16'3 5.6
2018-Feb-15 06:30N 29°44' W 095°13'3 5.8
2018-Feb-15 05:59N 29°44' W 095°10'3 6.1
2018-Feb-15 05:30N 29°45' W 095°06'1 1.8
2018-Feb-15 04:52N 29°46' W 095°07'1 1.1
2018-Feb-15 04:23N 29°46' W 095°07'0 0.1
2018-Feb-14 20:24N 29°46' W 095°07'1 0.4
2018-Feb-14 18:07N 29°47' W 095°06'0 0.0
2018-Feb-14 17:57N 29°47' W 095°06'0 0.0
2018-Feb-14 17:27N 29°47' W 095°06'0 0.1
2018-Feb-14 16:44N 29°46' W 095°06'1 3.0
2018-Feb-14 16:30N 29°46' W 095°05'  
Track history (hours):
 
Tides and Currents Weather Stations Pressure Air Temp Water Temp Dewpoint Dewpoint Depression Visibility Wind Speed Wind Dir Waves Ship Positions

San Patricio

Owner: BUFFALO MARINE SERVICE INC, HOUSTON, TX. More information available from US FCC via Universal Licensing System and Coast Guard Vessel Documentation Center.

Last reported at 2018-Feb-24 10:57 UTC. Time now 2018-Feb-24 12:18 UTC.
Position N 29°45' W 095°06'.

Length 30 m; draft 3.1 m.

Type: Tug. MMSI: 366941830.

Date/timePositionNaut miles runAvg speedWind from/ knotsBaromVisibWave heightAir tempDewpointWater temp
2018-Feb-24 10:57N 29°45' W 095°06'0 0.0
2018-Feb-24 10:29N 29°45' W 095°06'0 0.0
2018-Feb-24 10:00N 29°45' W 095°06'0 0.0
2018-Feb-24 09:30N 29°45' W 095°06'0 0.0
2018-Feb-24 09:00N 29°45' W 095°06'0 0.0
2018-Feb-24 08:30N 29°45' W 095°06'0 0.0
2018-Feb-24 07:26N 29°45' W 095°06'0 0.0
2018-Feb-24 07:00N 29°45' W 095°06'0 0.0
2018-Feb-24 06:30N 29°45' W 095°06'0 0.0
2018-Feb-24 06:00N 29°45' W 095°06'0 0.0
2018-Feb-24 05:30N 29°45' W 095°06'0 0.0
2018-Feb-24 05:00N 29°45' W 095°06'0 0.0
2018-Feb-24 04:29N 29°45' W 095°06'0 0.0
2018-Feb-24 04:00N 29°45' W 095°06'0 0.0
2018-Feb-24 03:30N 29°45' W 095°06'0 0.0
2018-Feb-24 03:00N 29°45' W 095°06'0 0.1
2018-Feb-24 02:30N 29°45' W 095°06'4 0.1
2018-Feb-22 16:40N 29°45' W 095°10'0 0.6
2018-Feb-22 16:28N 29°45' W 095°10'0 0.0
2018-Feb-22 16:00N 29°45' W 095°10'0 0.0
2018-Feb-22 15:30N 29°45' W 095°10'0 0.0
2018-Feb-22 15:00N 29°45' W 095°10'0 0.0
2018-Feb-22 14:30N 29°45' W 095°10'0 0.0
2018-Feb-22 13:57N 29°45' W 095°10'0 0.0
2018-Feb-22 13:29N 29°45' W 095°10'0 0.0
2018-Feb-22 13:00N 29°45' W 095°10'0 0.0
2018-Feb-22 12:22N 29°45' W 095°10'0 0.0
2018-Feb-22 11:51N 29°45' W 095°10'0 0.0
2018-Feb-22 11:25N 29°45' W 095°10'0 0.0
2018-Feb-22 11:00N 29°45' W 095°10'0 0.0
2018-Feb-22 10:22N 29°45' W 095°10'0 0.0
2018-Feb-22 10:00N 29°45' W 095°10'0 0.0
2018-Feb-22 09:30N 29°45' W 095°10'0 0.0
2018-Feb-22 09:00N 29°45' W 095°10'0 0.0
2018-Feb-22 08:30N 29°45' W 095°10'0 0.0
2018-Feb-22 08:00N 29°45' W 095°10'0 0.0
2018-Feb-22 07:29N 29°45' W 095°10'0 0.0
2018-Feb-22 07:00N 29°45' W 095°10'0 0.0
2018-Feb-22 06:28N 29°45' W 095°10'0 0.0
2018-Feb-22 06:00N 29°45' W 095°10'0 0.0
2018-Feb-22 05:30N 29°45' W 095°10'0 0.0
2018-Feb-22 05:00N 29°45' W 095°10'0 0.0
2018-Feb-22 04:30N 29°45' W 095°10'0 0.3
2018-Feb-22 03:58N 29°45' W 095°10'5 4.3
2018-Feb-22 02:47N 29°46' W 095°04'2 6.4
2018-Feb-22 02:28N 29°44' W 095°03'0 0.0
2018-Feb-21 14:34N 29°44' W 095°03'0 0.0
2018-Feb-21 14:29N 29°44' W 095°03'0 0.0
2018-Feb-21 13:58N 29°44' W 095°03'0 0.0
2018-Feb-21 13:29N 29°44' W 095°03'0 0.0
2018-Feb-21 13:00N 29°44' W 095°03'0 0.0
2018-Feb-21 12:28N 29°44' W 095°03'0 0.0
2018-Feb-21 11:59N 29°44' W 095°03'0 0.0
2018-Feb-21 11:30N 29°44' W 095°03'0 0.0
2018-Feb-21 11:00N 29°44' W 095°03'0 0.0
2018-Feb-21 10:30N 29°44' W 095°03'0 0.1
2018-Feb-21 09:36N 29°44' W 095°03'0 0.9
2018-Feb-21 09:30N 29°44' W 095°03'0 0.0
2018-Feb-21 04:06N 29°44' W 095°03'0 0.0
2018-Feb-20 20:24N 29°44' W 095°03'0 0.4
2018-Feb-20 20:00N 29°44' W 095°03'0 0.1
2018-Feb-20 19:27N 29°44' W 095°03'3 1.9
2018-Feb-20 17:41N 29°46' W 095°06'1 2.8
2018-Feb-20 17:29N 29°46' W 095°05'3 6.1
2018-Feb-20 17:00N 29°44' W 095°03'3 6.3
2018-Feb-20 16:31N 29°42' W 095°00'1 2.2
2018-Feb-20 16:00N 29°41' W 094°60'0 0.4
2018-Feb-20 15:30N 29°41' W 094°60'0 0.4
2018-Feb-20 15:00N 29°41' W 094°60'0 0.0
2018-Feb-20 14:17N 29°41' W 094°60'0 0.0
2018-Feb-20 14:00N 29°41' W 094°60'0 0.0
2018-Feb-20 13:30N 29°41' W 094°60'0 0.0
2018-Feb-20 09:42N 29°41' W 094°60'0 0.0
2018-Feb-20 08:21N 29°41' W 094°60'0 0.0
2018-Feb-20 08:00N 29°41' W 094°60'0 0.0
2018-Feb-20 07:30N 29°41' W 094°60'0 0.0
2018-Feb-20 07:00N 29°41' W 094°60'0 0.0
2018-Feb-20 06:30N 29°41' W 094°60'0 0.0
2018-Feb-20 06:00N 29°41' W 094°60'0 0.0
2018-Feb-20 05:30N 29°41' W 094°60'0 0.0
2018-Feb-20 05:00N 29°41' W 094°60'1 2.3
2018-Feb-20 04:30N 29°42' W 095°00'3 6.0
2018-Feb-20 03:58N 29°44' W 095°03'3 5.5
2018-Feb-20 03:24N 29°46' W 095°06'1 1.2
2018-Feb-20 02:52N 29°47' W 095°06'0 0.1
2018-Feb-20 02:30N 29°47' W 095°06'0 0.1
2018-Feb-20 01:56N 29°46' W 095°06'0 0.0
2018-Feb-20 01:30N 29°46' W 095°06'1 0.1
2018-Feb-19 14:20N 29°46' W 095°07'0 0.0
2018-Feb-19 12:46N 29°46' W 095°07'1 1.7
2018-Feb-19 12:26N 29°46' W 095°06'1 0.7
2018-Feb-19 11:10N 29°46' W 095°06'0 0.1
2018-Feb-19 11:00N 29°46' W 095°06'0 0.0
2018-Feb-19 10:29N 29°46' W 095°06'0 0.1
2018-Feb-19 09:50N 29°47' W 095°06'0 0.0
2018-Feb-19 09:29N 29°47' W 095°06'0 0.0
2018-Feb-19 09:00N 29°47' W 095°06'0 0.0
2018-Feb-19 08:30N 29°47' W 095°06'0 0.0
2018-Feb-19 08:00N 29°47' W 095°06'0 0.0
2018-Feb-19 07:30N 29°47' W 095°06'0 0.0
2018-Feb-19 06:59N 29°47' W 095°06'0 0.0
2018-Feb-19 06:29N 29°47' W 095°06'0 0.0
2018-Feb-19 05:59N 29°47' W 095°06'0 0.0
2018-Feb-19 05:30N 29°47' W 095°06'0 0.0
2018-Feb-19 04:54N 29°47' W 095°06'0 0.0
2018-Feb-19 01:52N 29°47' W 095°06'0 0.0
2018-Feb-19 01:22N 29°47' W 095°06'0 0.0
2018-Feb-19 00:59N 29°47' W 095°06'0 0.0
2018-Feb-19 00:24N 29°47' W 095°06'0 0.0
2018-Feb-18 23:59N 29°47' W 095°06'0 0.0
2018-Feb-18 23:30N 29°47' W 095°06'0 0.1
2018-Feb-18 22:57N 29°46' W 095°06'2 4.1
2018-Feb-18 22:29N 29°46' W 095°04'3 6.4
2018-Feb-18 21:59N 29°44' W 095°01'3 6.4
2018-Feb-18 21:30N 29°41' W 094°59'1 1.7
2018-Feb-18 20:56N 29°41' W 095°00'0 0.0
2018-Feb-18 20:29N 29°41' W 095°00'0 0.0
2018-Feb-18 20:00N 29°41' W 095°00'0 0.0
2018-Feb-18 19:29N 29°41' W 095°00'0 0.0
2018-Feb-18 19:00N 29°41' W 095°00'0 0.1
2018-Feb-18 18:30N 29°41' W 095°00'0 0.1
2018-Feb-18 18:00N 29°41' W 095°00'0 0.0
2018-Feb-18 17:30N 29°41' W 095°00'0 0.5
2018-Feb-18 17:01N 29°41' W 095°00'0 0.1
2018-Feb-18 16:30N 29°41' W 095°00'0 0.0
2018-Feb-18 16:00N 29°41' W 095°00'0 0.0
2018-Feb-18 15:30N 29°41' W 095°00'0 0.0
2018-Feb-18 15:00N 29°41' W 095°00'0 0.0
2018-Feb-18 14:30N 29°41' W 095°00'0 0.0
2018-Feb-18 14:00N 29°41' W 095°00'0 0.0
2018-Feb-18 13:30N 29°41' W 095°00'0 0.0
2018-Feb-18 13:00N 29°41' W 095°00'0 0.0
2018-Feb-18 12:30N 29°41' W 095°00'0 0.0
2018-Feb-18 11:39N 29°41' W 095°00'0 0.1
2018-Feb-18 11:30N 29°41' W 095°00'0 0.0
2018-Feb-18 11:01N 29°41' W 095°00'0 0.0
2018-Feb-18 10:30N 29°41' W 095°00'0 0.0
2018-Feb-18 10:00N 29°41' W 095°00'0 0.0
2018-Feb-18 09:31N 29°41' W 095°00'0 0.0
2018-Feb-18 09:00N 29°41' W 095°00'0 0.0
2018-Feb-18 08:30N 29°41' W 095°00'0 0.0
2018-Feb-18 08:00N 29°41' W 095°00'0 0.0
2018-Feb-18 07:30N 29°41' W 095°00'0 0.0
2018-Feb-18 07:00N 29°41' W 095°00'0 0.0
2018-Feb-18 06:30N 29°41' W 095°00'0 0.0
2018-Feb-18 06:00N 29°41' W 095°00'0 0.0
2018-Feb-18 05:30N 29°41' W 095°00'0 0.0
2018-Feb-18 05:00N 29°41' W 095°00'0 0.0
2018-Feb-18 04:30N 29°41' W 095°00'0 0.0
2018-Feb-18 04:00N 29°41' W 095°00'0 0.0
2018-Feb-18 03:30N 29°41' W 095°00'0 0.0
2018-Feb-18 03:00N 29°41' W 095°00'1 1.9
2018-Feb-18 02:30N 29°41' W 094°59'4 6.6
2018-Feb-18 01:56N 29°44' W 095°02'4 5.7
2018-Feb-18 01:16N 29°46' W 095°06'1 0.8
2018-Feb-18 00:37N 29°47' W 095°06'0 0.5
2018-Feb-18 00:26N 29°46' W 095°06'1 1.7
2018-Feb-17 23:59N 29°46' W 095°05'3 5.4
2018-Feb-17 23:20N 29°44' W 095°09'2 4.4
2018-Feb-17 22:57N 29°44' W 095°07'2 4.0
2018-Feb-17 22:30N 29°46' W 095°06'0 0.3
2018-Feb-17 21:58N 29°46' W 095°06'2 4.0
2018-Feb-17 21:29N 29°45' W 095°04'3 6.6
2018-Feb-17 21:00N 29°43' W 095°01'3 6.3
2018-Feb-17 20:30N 29°41' W 094°59'4 7.0
2018-Feb-17 20:00N 29°37' W 094°58'4 7.3
2018-Feb-17 19:31N 29°34' W 094°55'4 7.0
2018-Feb-17 19:00N 29°31' W 094°53'13 1.3
2018-Feb-17 09:04N 29°21' W 094°44'0 0.1
2018-Feb-17 08:56N 29°21' W 094°44'0 0.0
2018-Feb-17 08:29N 29°21' W 094°44'0 0.0
2018-Feb-17 07:58N 29°21' W 094°44'0 0.0
2018-Feb-17 07:28N 29°21' W 094°44'0 0.1
2018-Feb-17 06:59N 29°21' W 094°44'0 0.0
2018-Feb-17 06:21N 29°21' W 094°44'0 0.0
2018-Feb-17 05:55N 29°21' W 094°44'0 0.1
2018-Feb-17 05:22N 29°21' W 094°44'0 0.0
2018-Feb-17 05:00N 29°21' W 094°44'0 0.0
2018-Feb-17 04:29N 29°21' W 094°44'0 0.1
2018-Feb-17 03:57N 29°21' W 094°44'0 0.0
2018-Feb-17 03:30N 29°21' W 094°44'0 0.0
2018-Feb-17 02:58N 29°21' W 094°44'0 0.0
2018-Feb-17 02:30N 29°21' W 094°44'0 0.0
2018-Feb-17 02:00N 29°21' W 094°44'0 0.0
2018-Feb-17 01:05N 29°21' W 094°44'0 0.0
2018-Feb-17 00:51N 29°21' W 094°44'0 0.0
2018-Feb-17 00:30N 29°21' W 094°44'0 0.0
2018-Feb-17 00:00N 29°21' W 094°44'0 0.0
2018-Feb-16 23:30N 29°21' W 094°44'2 4.8
2018-Feb-16 23:00N 29°21' W 094°47'8 6.3
2018-Feb-16 21:48N 29°28' W 094°51'3 7.2
2018-Feb-16 21:21N 29°31' W 094°53'3 7.2
2018-Feb-16 21:00N 29°33' W 094°54'4 7.3
2018-Feb-16 20:31N 29°36' W 094°57'4 7.4
2018-Feb-16 20:00N 29°39' W 094°58'4 7.5
2018-Feb-16 19:30N 29°42' W 095°01'4 7.1
2018-Feb-16 19:00N 29°45' W 095°04'2 4.9
2018-Feb-16 18:30N 29°44' W 095°07'3 5.4
2018-Feb-16 18:01N 29°45' W 095°10'3 5.4
2018-Feb-16 17:24N 29°43' W 095°13'4 0.3
2018-Feb-16 04:24N 29°45' W 095°17'2 0.8
2018-Feb-16 02:08N 29°43' W 095°16'1 2.9
2018-Feb-16 01:40N 29°45' W 095°17'4 0.7
2018-Feb-15 19:33N 29°44' W 095°12'4 0.3
2018-Feb-15 08:36N 29°44' W 095°17'0 0.0
2018-Feb-15 08:12N 29°44' W 095°17'0 0.0
2018-Feb-15 07:58N 29°44' W 095°17'0 0.0
2018-Feb-15 07:30N 29°44' W 095°17'1 1.1
2018-Feb-15 07:00N 29°44' W 095°16'3 5.6
2018-Feb-15 06:30N 29°44' W 095°13'3 5.8
2018-Feb-15 05:59N 29°44' W 095°10'3 6.1
2018-Feb-15 05:30N 29°45' W 095°06'1 1.8
2018-Feb-15 04:52N 29°46' W 095°07'1 1.1
2018-Feb-15 04:23N 29°46' W 095°07'0 0.1
2018-Feb-14 20:24N 29°46' W 095°07'1 0.4
2018-Feb-14 18:07N 29°47' W 095°06'0 0.0
2018-Feb-14 17:57N 29°47' W 095°06'0 0.0
2018-Feb-14 17:27N 29°47' W 095°06'0 0.1
2018-Feb-14 16:44N 29°46' W 095°06'1 3.0
2018-Feb-14 16:30N 29°46' W 095°05'  

Dump ship's entire track history